createdAt,value
2023-01-10T00:03:40.811Z,11.43
2023-01-10T00:08:43.353Z,15.75
2023-01-10T00:13:45.909Z,13.17
2023-01-10T00:18:50.268Z,16.10
2023-01-10T00:23:53.308Z,13.43
2023-01-10T00:28:56.273Z,13.45
2023-01-10T00:34:00.159Z,12.63
2023-01-10T00:39:04.839Z,11.43
2023-01-10T00:44:08.778Z,11.40
2023-01-10T00:49:16.128Z,14.60
2023-01-10T00:54:19.079Z,14.63
2023-01-10T00:59:21.684Z,14.25
2023-01-10T01:04:25.612Z,14.23
2023-01-10T01:09:28.602Z,16.60
2023-01-10T01:14:31.176Z,10.88
2023-01-10T01:19:35.036Z,13.57
2023-01-10T01:24:39.331Z,12.97
2023-01-10T01:29:43.540Z,15.88
2023-01-10T01:34:47.708Z,18.83
2023-01-10T01:39:50.249Z,19.35
2023-01-10T01:45:30.391Z,13.13
2023-01-10T01:50:39.068Z,13.60
2023-01-10T01:55:44.080Z,11.32
2023-01-10T02:06:04.569Z,11.13
2023-01-10T02:11:11.845Z,12.43
2023-01-10T02:16:15.607Z,15.45
2023-01-10T02:21:49.303Z,13.60
2023-01-10T02:27:20.325Z,13.90
2023-01-10T02:39:23.142Z,11.75
2023-01-10T02:44:32.349Z,15.75
2023-01-10T02:49:43.205Z,11.90
2023-01-10T02:54:49.310Z,15.83
2023-01-10T03:00:11.011Z,13.63
2023-01-10T03:05:49.175Z,19.33
2023-01-10T03:10:57.895Z,16.50
2023-01-10T03:16:03.108Z,13.90
2023-01-10T03:21:09.067Z,14.35
2023-01-10T03:26:16.173Z,13.63
2023-01-10T03:31:24.117Z,15.00
2023-01-10T03:36:33.483Z,15.00
2023-01-10T03:41:41.693Z,15.37
2023-01-10T03:46:52.901Z,12.00
2023-01-10T03:52:05.197Z,13.85
2023-01-10T03:57:09.672Z,12.20
2023-01-10T04:02:12.741Z,16.98
2023-01-10T04:07:15.585Z,13.18
2023-01-10T04:12:20.003Z,13.75
2023-01-10T04:17:22.933Z,19.55
2023-01-10T04:22:28.975Z,12.20
2023-01-10T04:27:33.317Z,18.60
2023-01-10T04:32:36.174Z,13.70
2023-01-10T04:37:39.035Z,18.55
2023-01-10T04:42:43.647Z,15.13
2023-01-10T04:47:50.823Z,17.52
2023-01-10T04:52:53.881Z,14.98
2023-01-10T04:58:05.771Z,17.10
2023-01-10T05:03:08.762Z,14.80
2023-01-10T05:08:11.465Z,17.55
2023-01-10T05:13:15.611Z,13.70
2023-01-10T05:18:18.275Z,17.80
2023-01-10T05:23:23.808Z,14.70
2023-01-10T05:28:27.860Z,17.45
2023-01-10T05:33:30.631Z,17.03
2023-01-10T05:38:34.259Z,18.63
2023-01-10T05:43:38.470Z,16.75
2023-01-10T05:48:41.249Z,19.03
2023-01-10T05:53:44.235Z,15.73
2023-01-10T05:58:51.461Z,18.70
2023-01-10T06:03:56.939Z,17.87
2023-01-10T06:08:59.938Z,20.23
2023-01-10T06:14:04.451Z,18.65
2023-01-10T06:19:07.303Z,29.20
2023-01-10T06:24:10.508Z,18.77
2023-01-10T06:29:16.817Z,17.40
2023-01-10T06:34:19.677Z,18.30
2023-01-10T06:39:22.383Z,19.10
2023-01-10T06:44:27.157Z,19.70
2023-01-10T06:49:30.029Z,16.37
2023-01-10T06:54:32.813Z,23.23
2023-01-10T06:59:36.943Z,24.38
2023-01-10T07:04:39.874Z,18.20
2023-01-10T07:09:43.268Z,23.75
2023-01-10T07:14:47.306Z,30.60
2023-01-10T07:19:50.189Z,21.50
2023-01-10T07:24:54.567Z,22.17
2023-01-10T07:29:58.879Z,34.85
2023-01-10T07:35:01.782Z,21.23
2023-01-10T07:40:08.882Z,16.03
2023-01-10T07:45:13.431Z,22.30
2023-01-10T07:50:20.179Z,25.27
2023-01-10T07:55:23.948Z,22.30
2023-01-10T08:00:28.754Z,19.55
2023-01-10T08:05:33.909Z,24.05
2023-01-10T08:10:38.534Z,24.53
2023-01-10T08:15:42.896Z,20.63
2023-01-10T08:20:49.976Z,22.40
2023-01-10T08:25:54.137Z,20.98
2023-01-10T08:30:59.076Z,25.37
2023-01-10T08:36:03.045Z,22.77
2023-01-10T08:41:11.374Z,25.20
2023-01-10T08:46:18.493Z,29.60
2023-01-10T08:51:21.600Z,23.20
2023-01-10T08:56:24.611Z,21.38
2023-01-10T09:01:29.102Z,28.02
2023-01-10T09:06:31.945Z,25.38
2023-01-10T09:11:34.980Z,23.20
2023-01-10T09:16:39.157Z,26.50
2023-01-10T09:21:42.224Z,27.85
2023-01-10T09:26:45.059Z,24.83
2023-01-10T09:31:49.236Z,23.25
2023-01-10T09:36:52.083Z,20.15
2023-01-10T09:42:12.251Z,25.42
2023-01-10T09:47:24.568Z,29.08
2023-01-10T09:52:31.276Z,24.88
2023-01-10T09:57:34.538Z,28.13
2023-01-10T10:02:46.439Z,31.85
2023-01-10T10:07:58.257Z,24.65
2023-01-10T10:13:26.884Z,20.08
2023-01-10T10:18:41.472Z,28.63
2023-01-10T10:24:06.625Z,30.30
2023-01-10T10:29:34.974Z,23.23
2023-01-10T10:34:48.243Z,23.10
2023-01-10T10:39:58.590Z,26.30
2023-01-10T10:45:06.673Z,28.40
2023-01-10T10:50:24.741Z,21.02
2023-01-10T10:55:30.844Z,25.45
2023-01-10T11:00:34.851Z,23.98
2023-01-10T11:05:42.416Z,21.83
2023-01-10T11:10:49.721Z,30.00
2023-01-10T11:15:54.702Z,27.30
2023-01-10T11:21:06.428Z,21.85
2023-01-10T11:26:12.371Z,28.40
2023-01-10T11:31:15.574Z,22.52
2023-01-10T11:36:19.648Z,21.17
2023-01-10T11:41:27.204Z,27.05
2023-01-10T11:46:30.103Z,25.20
2023-01-10T11:51:37.469Z,17.30
2023-01-10T11:56:43.179Z,33.60
2023-01-10T12:01:49.147Z,24.67
2023-01-10T12:06:56.930Z,18.00
2023-01-10T12:12:03.412Z,26.92
2023-01-10T12:17:06.847Z,21.23
2023-01-10T12:22:16.467Z,17.80
2023-01-10T12:27:21.802Z,19.60
2023-01-10T12:32:30.773Z,18.88
2023-01-10T12:37:41.489Z,16.73
2023-01-10T12:43:16.870Z,47.75
2023-01-10T12:48:25.174Z,22.65
2023-01-10T12:53:35.796Z,19.10
2023-01-10T12:58:44.099Z,21.63
2023-01-10T13:03:51.351Z,20.67
2023-01-10T13:09:00.605Z,40.67
2023-01-10T13:14:08.657Z,19.85
2023-01-10T13:19:29.778Z,18.20
2023-01-10T13:24:34.101Z,22.23
2023-01-10T13:29:41.820Z,23.20
2023-01-10T13:34:44.831Z,19.00
2023-01-10T13:39:54.102Z,19.35
2023-01-10T13:45:20.198Z,24.38
2023-01-10T13:50:49.810Z,16.15
2023-01-10T13:55:58.164Z,17.13
2023-01-10T14:01:20.275Z,19.38
2023-01-10T14:06:42.518Z,17.65
2023-01-10T14:11:54.672Z,19.70
2023-01-10T14:17:00.085Z,18.53
2023-01-10T14:22:06.960Z,17.33
2023-01-10T14:27:16.797Z,15.38
2023-01-10T14:32:33.732Z,16.20
2023-01-10T14:37:45.420Z,15.75
2023-01-10T14:42:51.494Z,14.60
2023-01-10T14:47:54.825Z,21.40
2023-01-10T14:53:00.570Z,15.90
2023-01-10T14:58:04.902Z,15.93
2023-01-10T15:03:09.844Z,14.30
2023-01-10T15:08:23.899Z,13.35
2023-01-10T15:13:34.433Z,18.85
2023-01-10T15:18:43.467Z,16.23
2023-01-10T15:23:51.649Z,15.38
2023-01-10T15:29:13.954Z,16.93
2023-01-10T15:34:23.220Z,17.58
2023-01-10T15:39:34.021Z,15.20
2023-01-10T15:44:44.943Z,16.43
2023-01-10T15:49:54.821Z,15.87
2023-01-10T15:54:59.622Z,17.10
2023-01-10T16:00:09.225Z,16.95
2023-01-10T16:05:22.132Z,16.02
2023-01-10T16:11:04.647Z,19.83
2023-01-10T16:16:24.881Z,16.85
2023-01-10T16:21:45.447Z,18.38
2023-01-10T16:26:55.542Z,23.15
2023-01-10T16:32:05.152Z,17.80
2023-01-10T16:37:13.919Z,18.50
2023-01-10T16:42:43.725Z,16.93
2023-01-10T16:47:47.821Z,16.88
2023-01-10T16:52:50.513Z,21.45
2023-01-10T16:57:53.285Z,14.77
2023-01-10T17:02:58.510Z,19.30
2023-01-10T17:08:01.534Z,13.55
2023-01-10T17:13:07.760Z,18.87
2023-01-10T17:18:12.069Z,15.73
2023-01-10T17:23:15.681Z,14.20
2023-01-10T17:28:19.387Z,12.63
2023-01-10T17:33:23.501Z,14.40
2023-01-10T17:38:30.326Z,14.82
2023-01-10T17:43:32.874Z,19.00
2023-01-10T17:48:37.908Z,16.10
2023-01-10T17:53:40.710Z,12.93
2023-01-10T17:58:43.326Z,13.67
2023-01-10T18:03:47.350Z,13.15
2023-01-10T18:08:50.401Z,8.25
2023-01-10T18:13:53.697Z,11.57
2023-01-10T18:18:58.070Z,18.48
2023-01-10T18:24:01.758Z,6.30
2023-01-10T18:29:04.574Z,9.43
2023-01-10T18:34:08.908Z,8.95
2023-01-10T18:39:12.054Z,14.63
2023-01-10T18:44:16.048Z,15.73
2023-01-10T18:49:20.832Z,7.20
2023-01-10T18:54:23.716Z,6.10
2023-01-10T18:59:26.802Z,7.40
2023-01-10T19:04:31.007Z,8.87
2023-01-10T19:09:34.065Z,6.88
2023-01-10T19:14:37.415Z,11.25
2023-01-10T19:19:42.684Z,6.65
2023-01-10T19:24:45.600Z,5.37
2023-01-10T19:29:49.907Z,7.72
2023-01-10T19:34:54.114Z,8.68
2023-01-10T19:39:56.871Z,5.05
2023-01-10T19:44:59.545Z,6.90
2023-01-10T19:50:03.776Z,8.85
2023-01-10T19:55:07.513Z,8.52
2023-01-10T20:00:11.906Z,7.70
2023-01-10T20:05:16.340Z,6.78
2023-01-10T20:10:19.377Z,3.42
2023-01-10T20:15:21.941Z,8.25
2023-01-10T20:20:25.848Z,6.32
2023-01-10T20:25:28.646Z,5.75
2023-01-10T20:30:31.190Z,5.63
2023-01-10T20:35:35.376Z,11.93
2023-01-10T20:40:41.342Z,6.47
2023-01-10T20:45:43.987Z,9.32
2023-01-10T20:50:48.694Z,4.32
2023-01-10T20:55:59.692Z,5.38
2023-01-10T21:01:03.072Z,5.93
2023-01-10T21:06:07.966Z,5.10
2023-01-10T21:11:12.555Z,6.35
2023-01-10T21:16:19.265Z,6.40
2023-01-10T21:21:23.773Z,6.47
2023-01-10T21:26:26.427Z,5.93
2023-01-10T21:31:30.830Z,10.50
2023-01-10T21:36:34.776Z,4.82
2023-01-10T21:41:56.991Z,3.10
2023-01-10T21:46:59.833Z,5.30
2023-01-10T21:52:03.876Z,4.10
2023-01-10T21:57:06.423Z,3.10
2023-01-10T22:02:12.794Z,3.17
2023-01-10T22:07:16.791Z,3.22
2023-01-10T22:12:20.466Z,3.60
2023-01-10T22:17:23.368Z,3.03
2023-01-10T22:22:27.281Z,2.50
2023-01-10T22:27:30.179Z,3.80
2023-01-10T22:32:32.720Z,4.50
2023-01-10T22:37:36.653Z,2.83
2023-01-10T22:42:39.175Z,2.80
2023-01-10T22:47:41.725Z,2.10
2023-01-10T22:52:48.699Z,4.20
2023-01-10T22:57:51.454Z,3.30
2023-01-10T23:02:54.021Z,3.50
2023-01-10T23:07:57.896Z,3.35
2023-01-10T23:13:01.986Z,3.08
2023-01-10T23:18:04.770Z,2.07
2023-01-10T23:23:08.650Z,3.55
2023-01-10T23:28:11.416Z,2.78
2023-01-10T23:33:14.233Z,2.10
2023-01-10T23:38:18.259Z,3.70
2023-01-10T23:43:20.828Z,3.15
2023-01-10T23:48:24.372Z,4.00
2023-01-10T23:53:28.795Z,3.90
2023-01-10T23:58:31.342Z,3.70
